SMRA80 UAOL 161500
AAXX 16151
80403 42470 5//// 10318 20238 30107 40126 82278 333 30/// 56999 59002 82816 555 10129=
80410 42470 60904 10278 20194 39450 41012 83208 333 30/// 56909 59004 83816 555 10163=
80472 42465 3//// 10288 20191 39646 40122 83200 333 30/// 56200 59008 83816 555 10148=
85116 42465 63208 10331 20251 39922 40101 51005 83204 333 56706 59018 83817 86070=
85139 42465 63215 10320 20241 39889 40082 54000 84204 333 56706 59044 84817 86070=
85214 42470 50000 10275 20231 39830 40089 50006 84831 333 56777 59067 84615 85357=
85284 42984 10000 10212 20001 37013 50001 80001 333 56000 59023 81070=
85332 42870 43110 10128 21068 36583 50002 81032 333 56007 58002 81358 84070=
85406 44980 02211 10199 20118 30116 40160 50001 70110 80000=
85418 44570 62508 10185 20109 30108 40164 51004 70322 86500 333 86631=
85432 44960 22912 10210 21056 37724 48447 50005 70200 82030 333 82365=
85442 44570 22109 10169 20079 30002 40165 54001 70200 82500 333 564// 82620=
85469 14560 20304 10214 20158 30193 40244 53010 60001 70200 82101 333 20147 30/// 561/1 70000 82825 81075=
85488 44460 82505 10142 20095 30000 40175 50005 70222 885// 333 88616=
85574 44960 81711 10117 20063 39609 40167 53003 70222 8807/ 333 56/7/ 88364=
85577 44960 81603 10116 20071 39560 40174 52005 70222 8805/ 333 88363=
85585 44565 72605 10141 20074 30126 40162 58005 70122 87500 333 566// 87624=
85586 44460 82906 10131 20105 30083 40174 51004 70222 83530 333 5655/ 83613 88368=
85629 44556 8//// 10158 20104 39893 40153 50002 70522 87230 333 5646/ 87825 85357=
85672 41560 73409 10144 20105 39969 40148 56005 70222 86230 333 85820 85357=
85682 44460 70208 10132 20095 30140 40149 58001 70222 82800 333 567// 82815 87640=
85766 44441 83612 10109 20100 30069 40089 58013 76066 884// 333 567// 82813 88615=
85782 44660 83417 10127 20080 39984 40050 57014 70222 84800 333 567// 84835 88650=
85799 44360 83512 10097 20086 39928 40035 57005 76166 8552/ 333 5600/ 83608 85615 88535=
85864 44220 82003 10015 20008 39594 49971 52027 76166 8683/ 333 566// 82805 84610 88520=
85874 44420 83103 10016 20001 39342 49971 52020 78372 885// 333 566// 85610 88620=
85892 44462 72703 10077 20030 39679 49911 52015 70222 82700 333 566// 82710 87830=
85934 44570 62309 10084 21001 39892 49943 51026 70322 83230 333 5655/ 83832 83360=
86170 32670 40708 10276 20191 39966 40067 58005 82170 333 82840 83458=
86185 32570 60000 10298 20210 39968 40059 57033 84150 333 84633 86357=
86221 32670 30000 10270 20175 39967 40101 56008 83100 333 83840=
86246 32570 43606 10272 20193 39811 40092 56004 82550 333 82620 84358=
86532 42970 00308 10244 20158 39950 40089 57013 555 10188 20215 39998=
86586 42970 00406 10254 20135 30060 40099 57009 555 10179 20234 30110=
86595 42960 00806 10216 20157 30083 40102 57009 555 10178 20212 30129=
88968 41462 83203 11050 21113 30064 40080 52001 72272 8257/ 333 56669 82615 88360 90115 92417 92732 92820 95000 96270=
89004 46/// /1321 11197 2//// 38835 49896 51001 333 11189 21200 91027=
89578 46/// /02// 11470 36786 4//// 5////=
89611 454// 80315 11048 21058 39790 49844 52026 333 11021=
89648 46/// /2412 11478 29051 37120 4//// 5////=
89661 46/// /0603 11198 39209 4//// 5////=
89662 46/// /2506 11170 29043 39735 4//// 5////=
89664 42561 70611 11238 21298 39797 49842 56045 87500 333 56800 87620=
89809 46/// /0113 11071 21080 39388 53025=
89828 46/// ///// 11463 36443 4//// 5////=



SMUS80 KWBC 161500
AAXX 16154
81200 42670 41003 10337 20228 40110 84202 333 56209 59013 84835=
81202 42570 40706 10316 20249 40113 83202 333 56209 59015 83820=
81225 42570 30805 10322 20230 40109 83202 333 56209 59014 83820=
81405 24580 /0809 10323 20230 30110 40119 700// 333 60007 59006 555 60005=
85041 42470 53110 10322 20238 39832 40092 51000 83131 333 56000 59028 83817 84070=
85043 42465 53106 10322 20243 39943 40102 54000 83104 333 56700 58011 83817 85070=
85104 41458 53212 10340 20233 39931 40090 50006 70422 83204 333 56706 59035 83817 85070=
85109 41458 43212 10330 20228 39930 40087 51008 70422 83201 333 56706 59030 83817 84070=
85114 42465 63208 10324 20249 39929 40091 51007 83204 333 56706 59030 83817 86070=
85123 41558 73116 10318 20248 39922 40085 51010 70422 84204 333 56706 59038 84820 86070=
85140 424570 23406 10314 20242 39870 40077 51006 82200 333 56700 59028 82817=
85141 42570 40000 10321 20260 39847 40078 50007 83101 333 56800 59034 83820=
85152 42584 42904 10312 20248 39859 40088 57006 84200 333 56700 59028 84820=
85153 42465 43206 10314 20245 39900 40081 56003 84200 333 56700 59035 84817=
85154 42470 43210 10310 20253 39910 40086 50002 82201 333 56706 59048 82817 83070=
85175 42970 03612 10300 20232 39820 40110 50008 333 59059=
85195 41457 63615 10300 20219 39490 40085 54000 70422 84802 333 56809 59048 84817 86070=
85196 42480 63314 10295 20227 39534 40121 50002 86200 333 56700 59039 86817=
85201 42570 62706 10132 20010 36303 58001 81102 333 56000 59011 81820 86070=
85207 42580 33308 10320 20240 39625 40090 55003 83200 333 56700 59050 83820=
85210 42480 63606 10330 20244 30009 40115 50008 81104 333 56809 59051 81817 86070=
85223 42570 72103 10263 20060 37483 47125 58013 81131 333 56808 59024 81833 87070=
85242 42970 10908 10151 20026 36554 50000 80001 333 56000 58004 81070=
85244 42470 63215 10290 20215 39653 40074 54000 86901 333 56707 59070 85817 81927 85070=
85245 42470 63418 10276 20221 39589 40060 58005 86206 333 56709 59079 84612 86817 86070 91028=
85247 42480 53616 10350 20197 39737 40107 56013 85200 333 56800 59058 85817=
85264 42980 63610 10239 20153 38002 50004 80001 333 56009 59044 86070=
85268 42570 43515 10334 20217 39791 40104 50003 81101 333 56809 59049 81820 84070=
85289 42480 50905 10330 20250 39928 40080 56002 82201 333 56209 59039 82817 85070=
85293 42984 00608 10139 20020 36360 52012 333 58009=
85312 42970 12003 10275 20172 38834 57014 80009 333 56001 59084 81170=
85315 42870 13604 10283 20129 39172 40042 51016 81030 333 56080 59092 81357=
85345 42984 10000 10303 20166 39588 40036 57020 80001 333 56000 59091 81070=
85364 42970 50904 10256 20116 38091 48288 57021 84079 333 56077 59059 84360=
85365 42970 60608 10280 20182 39330 40068 58011 80001 333 56000 59066 86070=
86033 32870 40208 10312 20236 30009 40102 51011 84060 333 84357=
86068 32570 80904 10288 20197 39873 40061 57013 8257/ 333 82630 88457=
86086 32570 30000 10320 20218 39991 40078 58009 83100 333 83833=
86097 32570 43616 10302 20194 39457 40082 57011 84100 333 84833=
86134 32570 43604 10294 20216 39997 40082 56004 81170 333 81827 84357=
86192 32570 80502 10276 20193 39883 40097 51002 8557/ 333 85620 88357=
86210 32570 60904 10254 20202 39754 40093 52003 83270 333 83833 83358=
86218 32570 50207 10276 20188 39994 40088 57008 85100 333 85833=
86234 32570 33604 10270 20156 39939 40120 52011 83100 333 83827=
86255 32970 03613 10266 20160 30024 40091 55001=
86260 32970 00000 10250 20187 39946 40096 57010=
86268 32570 20000 10272 20172 39927 40089 51004 82100 333 82833=
86297 32570 53204 10266 20177 39866 40095 57003 85100 333 85830=
86330 42570 10000 10272 20194 39952 40090 58006 81100 555 10218 20200 30000=
86360 42965 10408 10260 20158 30038 40086 57011 80005 555 10193 20228 30090=
86430 42965 10206 10252 20153 30032 40103 57004 80006 555 10188 20190 30077=
86440 42970 13505 10250 20182 40107 58003 80005 555 10204=
86450 42970 00205 10246 20145 39994 40087 58005 555 10181 20221 30043=
86460 42570 10505 10248 20177 30008 40096 57004 81100 555 10200 20200 30054=
86490 42965 03610 10263 20152 30063 40084 58013 555 10191 20223 30113=
86500 42970 00403 10238 20162 30046 40101 57016 555 10188 20252 30101=
86530 42970 10109 10248 20160 39981 40088 57014 80005 555 10190 20230 30031=
86545 42960 03607 10256 20144 30019 40097 57012 555 10184 20180 30060=
86560 42970 00310 10248 20156 30050 40073 56007 555 10188 20245 30102=
86565 42970 00507 10244 20128 30077 40099 57006 555 10172 20230 30127=
86575 42965 00314 10260 20127 30038 40096 53011 555 10177 20220 30086=
86580 42965 03613 10257 20113 30058 40097 57009 555 10169 20230 30108=
86585 42968 03411 10257 20123 30072 40091 57009 555 10174 20233 30122=
89034 42570 52514 11225 21250 39666 40010 52004 82508 333 56607 82630 85268 92841=
89053 42362 82705 11026 21070 30038 40052 52012 8162/ 333 56669 81708 88540 92417 92739 92820 94070 95000=
89055 41965 01817 11121 21136 39802 40058 52011 72840 333 90103 92739 92840 95100=
89056 44560 60103 11032 21060 39996 40050 52010 70211 86400 333 565// 86630=
89057 44560 61703 10000 21064 40050 52010 70122 86500 333 564// 86630=
89059 44960 01002 11011 21078 30026 40041 52011 70000 80000=
89066 42970 30504 11058 21090 30106 40115 52016 83070 333 56050 83360 92407 92734 92840 95000=
89314 46/// ///// 11186 38092 4//// 5////=
89504 46/// /2501 11166 21249 38362 49883 57006=
89532 42/80 70503 11201 21229 39913 49942 58005 81072=
89564 45/// /1320 11109 21233 39782 49803 53005 6///0 333 11081=
89571 43/// /0623 11022 21125 39709 49738 58005 6///2 333 11003=
89577 46/// /34// 4//// 5////=
89666 46/// /3101 11237 29013 39643 4//// 5////=
89866 46/// ///// 11225 39706 4//// 5////=
89879 46/// ///// 11161 39757 4//// 5////=